sensor_id;sensor_type;location;lat;lon;timestamp;P1;durP1;ratioP1;P2;durP2;ratioP2
25279;SDS011;13225;47.804;12.116;2023-02-07T00:01:05;34.08;;;16.65;;
25279;SDS011;13225;47.804;12.116;2023-02-07T00:03:35;38.80;;;17.50;;
25279;SDS011;13225;47.804;12.116;2023-02-07T00:06:07;39.50;;;17.77;;
25279;SDS011;13225;47.804;12.116;2023-02-07T00:08:38;39.58;;;17.85;;
25279;SDS011;13225;47.804;12.116;2023-02-07T00:11:14;40.75;;;18.73;;
25279;SDS011;13225;47.804;12.116;2023-02-07T00:13:42;39.40;;;18.27;;
25279;SDS011;13225;47.804;12.116;2023-02-07T00:16:08;38.50;;;18.38;;
25279;SDS011;13225;47.804;12.116;2023-02-07T00:18:34;43.92;;;19.50;;
25279;SDS011;13225;47.804;12.116;2023-02-07T00:21:01;38.80;;;17.65;;
25279;SDS011;13225;47.804;12.116;2023-02-07T00:23:31;40.17;;;17.30;;
25279;SDS011;13225;47.804;12.116;2023-02-07T00:25:58;40.42;;;19.15;;
25279;SDS011;13225;47.804;12.116;2023-02-07T00:28:24;42.00;;;17.33;;
25279;SDS011;13225;47.804;12.116;2023-02-07T00:30:50;36.55;;;16.42;;
25279;SDS011;13225;47.804;12.116;2023-02-07T00:33:26;40.13;;;18.27;;
25279;SDS011;13225;47.804;12.116;2023-02-07T00:36:01;43.38;;;19.10;;
25279;SDS011;13225;47.804;12.116;2023-02-07T00:38:29;38.53;;;16.02;;
25279;SDS011;13225;47.804;12.116;2023-02-07T00:40:55;37.25;;;17.05;;
25279;SDS011;13225;47.804;12.116;2023-02-07T00:43:21;35.90;;;15.75;;
25279;SDS011;13225;47.804;12.116;2023-02-07T00:45:47;38.08;;;16.38;;
25279;SDS011;13225;47.804;12.116;2023-02-07T00:48:12;41.10;;;18.85;;
25279;SDS011;13225;47.804;12.116;2023-02-07T00:50:38;38.60;;;17.63;;
25279;SDS011;13225;47.804;12.116;2023-02-07T00:53:04;38.85;;;17.23;;
25279;SDS011;13225;47.804;12.116;2023-02-07T00:55:30;36.90;;;16.73;;
25279;SDS011;13225;47.804;12.116;2023-02-07T00:57:55;37.05;;;16.95;;
25279;SDS011;13225;47.804;12.116;2023-02-07T01:00:21;40.42;;;17.00;;
25279;SDS011;13225;47.804;12.116;2023-02-07T01:02:46;42.15;;;18.60;;
25279;SDS011;13225;47.804;12.116;2023-02-07T01:05:12;39.22;;;18.17;;
25279;SDS011;13225;47.804;12.116;2023-02-07T01:07:38;36.85;;;17.10;;
25279;SDS011;13225;47.804;12.116;2023-02-07T01:10:03;38.42;;;17.35;;
25279;SDS011;13225;47.804;12.116;2023-02-07T01:12:29;40.92;;;16.95;;
25279;SDS011;13225;47.804;12.116;2023-02-07T01:14:55;38.15;;;17.27;;
25279;SDS011;13225;47.804;12.116;2023-02-07T01:17:20;39.63;;;18.13;;
25279;SDS011;13225;47.804;12.116;2023-02-07T01:19:46;41.50;;;17.67;;
25279;SDS011;13225;47.804;12.116;2023-02-07T01:22:11;53.67;;;22.00;;
25279;SDS011;13225;47.804;12.116;2023-02-07T01:24:37;39.40;;;17.90;;
25279;SDS011;13225;47.804;12.116;2023-02-07T01:27:02;41.05;;;17.95;;
25279;SDS011;13225;47.804;12.116;2023-02-07T01:29:28;43.58;;;18.73;;
25279;SDS011;13225;47.804;12.116;2023-02-07T01:31:53;48.70;;;19.55;;
25279;SDS011;13225;47.804;12.116;2023-02-07T01:34:19;37.47;;;18.02;;
25279;SDS011;13225;47.804;12.116;2023-02-07T01:36:45;43.63;;;18.83;;
25279;SDS011;13225;47.804;12.116;2023-02-07T01:39:10;41.35;;;18.08;;
25279;SDS011;13225;47.804;12.116;2023-02-07T01:41:36;37.75;;;16.92;;
25279;SDS011;13225;47.804;12.116;2023-02-07T01:44:06;46.60;;;18.33;;
25279;SDS011;13225;47.804;12.116;2023-02-07T01:46:48;45.20;;;18.48;;
25279;SDS011;13225;47.804;12.116;2023-02-07T01:49:15;42.97;;;19.42;;
25279;SDS011;13225;47.804;12.116;2023-02-07T01:51:46;50.83;;;19.70;;
25279;SDS011;13225;47.804;12.116;2023-02-07T01:54:21;52.70;;;20.23;;
25279;SDS011;13225;47.804;12.116;2023-02-07T01:56:52;49.22;;;21.35;;
25279;SDS011;13225;47.804;12.116;2023-02-07T01:59:20;35.28;;;13.35;;
25279;SDS011;13225;47.804;12.116;2023-02-07T02:01:47;39.80;;;18.40;;
25279;SDS011;13225;47.804;12.116;2023-02-07T02:04:13;36.70;;;15.77;;
25279;SDS011;13225;47.804;12.116;2023-02-07T02:06:39;40.25;;;16.90;;
25279;SDS011;13225;47.804;12.116;2023-02-07T02:09:09;35.38;;;16.55;;
25279;SDS011;13225;47.804;12.116;2023-02-07T02:28:42;38.35;;;14.80;;
25279;SDS011;13225;47.804;12.116;2023-02-07T02:31:17;36.90;;;16.33;;
25279;SDS011;13225;47.804;12.116;2023-02-07T02:41:47;32.15;;;14.57;;
25279;SDS011;13225;47.804;12.116;2023-02-07T02:44:30;35.00;;;14.52;;
25279;SDS011;13225;47.804;12.116;2023-02-07T02:46:59;32.53;;;14.90;;
25279;SDS011;13225;47.804;12.116;2023-02-07T02:49:26;38.03;;;16.50;;
25279;SDS011;13225;47.804;12.116;2023-02-07T02:51:55;34.38;;;16.33;;
25279;SDS011;13225;47.804;12.116;2023-02-07T02:54:28;37.95;;;16.05;;
25279;SDS011;13225;47.804;12.116;2023-02-07T02:57:12;35.80;;;15.80;;
25279;SDS011;13225;47.804;12.116;2023-02-07T03:08:24;37.75;;;16.38;;
25279;SDS011;13225;47.804;12.116;2023-02-07T03:11:24;39.35;;;17.35;;
25279;SDS011;13225;47.804;12.116;2023-02-07T03:16:56;36.90;;;17.00;;
25279;SDS011;13225;47.804;12.116;2023-02-07T03:22:35;42.40;;;17.48;;
25279;SDS011;13225;47.804;12.116;2023-02-07T03:25:02;33.60;;;15.30;;
25279;SDS011;13225;47.804;12.116;2023-02-07T03:27:29;34.90;;;16.05;;
25279;SDS011;13225;47.804;12.116;2023-02-07T03:29:58;37.05;;;16.52;;
25279;SDS011;13225;47.804;12.116;2023-02-07T03:32:29;37.55;;;16.02;;
25279;SDS011;13225;47.804;12.116;2023-02-07T03:35:00;38.70;;;15.35;;
25279;SDS011;13225;47.804;12.116;2023-02-07T03:37:35;34.85;;;16.08;;
25279;SDS011;13225;47.804;12.116;2023-02-07T03:42:44;37.53;;;15.65;;
25279;SDS011;13225;47.804;12.116;2023-02-07T03:45:14;36.72;;;15.35;;
25279;SDS011;13225;47.804;12.116;2023-02-07T03:47:41;34.08;;;15.50;;
25279;SDS011;13225;47.804;12.116;2023-02-07T03:50:07;35.58;;;15.25;;
25279;SDS011;13225;47.804;12.116;2023-02-07T03:52:33;35.28;;;15.23;;
25279;SDS011;13225;47.804;12.116;2023-02-07T03:54:59;29.77;;;12.82;;
25279;SDS011;13225;47.804;12.116;2023-02-07T03:57:24;33.75;;;14.88;;
25279;SDS011;13225;47.804;12.116;2023-02-07T03:59:50;32.03;;;14.15;;
25279;SDS011;13225;47.804;12.116;2023-02-07T04:02:15;32.15;;;14.30;;
25279;SDS011;13225;47.804;12.116;2023-02-07T04:04:41;35.58;;;14.25;;
25279;SDS011;13225;47.804;12.116;2023-02-07T04:07:08;33.17;;;14.73;;
25279;SDS011;13225;47.804;12.116;2023-02-07T04:09:35;35.03;;;14.60;;
25279;SDS011;13225;47.804;12.116;2023-02-07T04:12:01;38.40;;;15.23;;
25279;SDS011;13225;47.804;12.116;2023-02-07T04:14:27;40.17;;;15.85;;
25279;SDS011;13225;47.804;12.116;2023-02-07T04:16:52;34.80;;;16.00;;
25279;SDS011;13225;47.804;12.116;2023-02-07T04:19:18;36.67;;;15.13;;
25279;SDS011;13225;47.804;12.116;2023-02-07T04:21:43;33.05;;;15.30;;
25279;SDS011;13225;47.804;12.116;2023-02-07T04:24:09;36.53;;;15.30;;
25279;SDS011;13225;47.804;12.116;2023-02-07T04:26:35;40.88;;;16.38;;
25279;SDS011;13225;47.804;12.116;2023-02-07T04:29:01;37.55;;;15.70;;
25279;SDS011;13225;47.804;12.116;2023-02-07T04:31:27;32.70;;;14.98;;
25279;SDS011;13225;47.804;12.116;2023-02-07T04:33:52;36.50;;;15.88;;
25279;SDS011;13225;47.804;12.116;2023-02-07T04:36:18;37.13;;;16.23;;
25279;SDS011;13225;47.804;12.116;2023-02-07T04:38:43;38.85;;;16.40;;
25279;SDS011;13225;47.804;12.116;2023-02-07T04:41:09;33.97;;;15.20;;
25279;SDS011;13225;47.804;12.116;2023-02-07T04:43:35;38.38;;;15.63;;
25279;SDS011;13225;47.804;12.116;2023-02-07T04:46:01;32.95;;;14.23;;
25279;SDS011;13225;47.804;12.116;2023-02-07T04:48:28;34.38;;;14.70;;
25279;SDS011;13225;47.804;12.116;2023-02-07T04:50:53;32.97;;;14.63;;
25279;SDS011;13225;47.804;12.116;2023-02-07T04:53:19;35.08;;;16.35;;
25279;SDS011;13225;47.804;12.116;2023-02-07T04:55:51;37.13;;;15.52;;
25279;SDS011;13225;47.804;12.116;2023-02-07T04:58:18;34.72;;;15.68;;
25279;SDS011;13225;47.804;12.116;2023-02-07T05:00:44;35.00;;;14.88;;
25279;SDS011;13225;47.804;12.116;2023-02-07T05:03:10;39.03;;;15.95;;
25279;SDS011;13225;47.804;12.116;2023-02-07T05:05:40;34.92;;;13.77;;
25279;SDS011;13225;47.804;12.116;2023-02-07T05:08:07;35.00;;;15.00;;
25279;SDS011;13225;47.804;12.116;2023-02-07T05:10:33;35.95;;;16.02;;
25279;SDS011;13225;47.804;12.116;2023-02-07T05:12:58;39.72;;;15.82;;
25279;SDS011;13225;47.804;12.116;2023-02-07T05:15:24;39.58;;;16.58;;
25279;SDS011;13225;47.804;12.116;2023-02-07T05:17:50;36.97;;;16.42;;
25279;SDS011;13225;47.804;12.116;2023-02-07T05:20:16;43.70;;;17.13;;
25279;SDS011;13225;47.804;12.116;2023-02-07T05:22:42;38.30;;;17.50;;
25279;SDS011;13225;47.804;12.116;2023-02-07T05:25:08;34.72;;;15.15;;
25279;SDS011;13225;47.804;12.116;2023-02-07T05:27:33;32.53;;;14.82;;
25279;SDS011;13225;47.804;12.116;2023-02-07T05:29:59;30.35;;;14.90;;
25279;SDS011;13225;47.804;12.116;2023-02-07T05:32:25;35.40;;;15.02;;
25279;SDS011;13225;47.804;12.116;2023-02-07T05:35:09;33.38;;;15.75;;
25279;SDS011;13225;47.804;12.116;2023-02-07T05:37:34;37.08;;;15.85;;
25279;SDS011;13225;47.804;12.116;2023-02-07T05:40:00;37.85;;;15.90;;
25279;SDS011;13225;47.804;12.116;2023-02-07T05:42:27;42.25;;;16.40;;
25279;SDS011;13225;47.804;12.116;2023-02-07T05:44:52;40.13;;;16.13;;
25279;SDS011;13225;47.804;12.116;2023-02-07T05:47:18;35.42;;;15.73;;
25279;SDS011;13225;47.804;12.116;2023-02-07T05:49:43;44.58;;;15.70;;
25279;SDS011;13225;47.804;12.116;2023-02-07T05:52:09;38.35;;;16.05;;
25279;SDS011;13225;47.804;12.116;2023-02-07T05:54:35;40.67;;;16.55;;
25279;SDS011;13225;47.804;12.116;2023-02-07T05:57:00;40.42;;;16.67;;
25279;SDS011;13225;47.804;12.116;2023-02-07T05:59:26;42.85;;;16.80;;
25279;SDS011;13225;47.804;12.116;2023-02-07T06:01:51;52.42;;;18.05;;
25279;SDS011;13225;47.804;12.116;2023-02-07T06:04:17;119.78;;;29.63;;
25279;SDS011;13225;47.804;12.116;2023-02-07T06:06:42;151.93;;;33.78;;
25279;SDS011;13225;47.804;12.116;2023-02-07T06:09:08;91.07;;;25.58;;
25279;SDS011;13225;47.804;12.116;2023-02-07T06:11:34;62.08;;;21.00;;
25279;SDS011;13225;47.804;12.116;2023-02-07T06:13:59;107.18;;;25.63;;
25279;SDS011;13225;47.804;12.116;2023-02-07T06:16:25;151.70;;;32.97;;
25279;SDS011;13225;47.804;12.116;2023-02-07T06:18:50;129.30;;;31.65;;
25279;SDS011;13225;47.804;12.116;2023-02-07T06:21:16;55.97;;;21.90;;
25279;SDS011;13225;47.804;12.116;2023-02-07T06:23:42;45.67;;;18.35;;
25279;SDS011;13225;47.804;12.116;2023-02-07T06:26:07;45.40;;;18.40;;
25279;SDS011;13225;47.804;12.116;2023-02-07T06:28:33;43.13;;;18.02;;
25279;SDS011;13225;47.804;12.116;2023-02-07T06:30:58;54.00;;;18.88;;
25279;SDS011;13225;47.804;12.116;2023-02-07T06:33:24;50.00;;;18.08;;
25279;SDS011;13225;47.804;12.116;2023-02-07T06:35:50;56.67;;;21.25;;
25279;SDS011;13225;47.804;12.116;2023-02-07T06:38:16;51.08;;;20.25;;
25279;SDS011;13225;47.804;12.116;2023-02-07T06:40:42;53.35;;;20.58;;
25279;SDS011;13225;47.804;12.116;2023-02-07T06:43:08;50.58;;;19.55;;
25279;SDS011;13225;47.804;12.116;2023-02-07T06:45:34;54.70;;;21.08;;
25279;SDS011;13225;47.804;12.116;2023-02-07T06:48:00;64.95;;;22.25;;
25279;SDS011;13225;47.804;12.116;2023-02-07T06:50:26;53.00;;;21.38;;
25279;SDS011;13225;47.804;12.116;2023-02-07T06:52:52;52.75;;;20.23;;
25279;SDS011;13225;47.804;12.116;2023-02-07T06:55:17;47.17;;;18.10;;
25279;SDS011;13225;47.804;12.116;2023-02-07T06:57:43;43.40;;;17.55;;
25279;SDS011;13225;47.804;12.116;2023-02-07T07:00:09;44.08;;;18.98;;
25279;SDS011;13225;47.804;12.116;2023-02-07T07:02:35;48.47;;;18.50;;
25279;SDS011;13225;47.804;12.116;2023-02-07T07:05:01;51.40;;;20.27;;
25279;SDS011;13225;47.804;12.116;2023-02-07T07:07:27;55.72;;;21.98;;
25279;SDS011;13225;47.804;12.116;2023-02-07T07:09:53;51.28;;;20.98;;
25279;SDS011;13225;47.804;12.116;2023-02-07T07:12:18;51.30;;;21.95;;
25279;SDS011;13225;47.804;12.116;2023-02-07T07:14:44;48.90;;;21.42;;
25279;SDS011;13225;47.804;12.116;2023-02-07T07:17:10;46.05;;;20.65;;
25279;SDS011;13225;47.804;12.116;2023-02-07T07:19:35;47.88;;;20.02;;
25279;SDS011;13225;47.804;12.116;2023-02-07T07:22:01;44.65;;;18.75;;
25279;SDS011;13225;47.804;12.116;2023-02-07T07:24:26;53.65;;;23.23;;
25279;SDS011;13225;47.804;12.116;2023-02-07T07:26:52;47.05;;;20.98;;
25279;SDS011;13225;47.804;12.116;2023-02-07T07:29:18;52.03;;;22.48;;
25279;SDS011;13225;47.804;12.116;2023-02-07T07:31:44;47.60;;;21.38;;
25279;SDS011;13225;47.804;12.116;2023-02-07T07:34:11;43.88;;;19.30;;
25279;SDS011;13225;47.804;12.116;2023-02-07T07:36:36;45.05;;;20.23;;
25279;SDS011;13225;47.804;12.116;2023-02-07T07:39:02;41.78;;;19.25;;
25279;SDS011;13225;47.804;12.116;2023-02-07T07:41:29;42.88;;;19.38;;
25279;SDS011;13225;47.804;12.116;2023-02-07T07:43:54;39.00;;;17.35;;
25279;SDS011;13225;47.804;12.116;2023-02-07T07:46:20;38.60;;;16.95;;
25279;SDS011;13225;47.804;12.116;2023-02-07T07:48:46;34.58;;;16.48;;
25279;SDS011;13225;47.804;12.116;2023-02-07T07:51:11;38.50;;;16.77;;
25279;SDS011;13225;47.804;12.116;2023-02-07T07:53:37;22.50;;;10.23;;
25279;SDS011;13225;47.804;12.116;2023-02-07T07:56:02;27.92;;;11.50;;
25279;SDS011;13225;47.804;12.116;2023-02-07T07:58:28;41.50;;;16.65;;
25279;SDS011;13225;47.804;12.116;2023-02-07T08:00:54;36.50;;;16.27;;
25279;SDS011;13225;47.804;12.116;2023-02-07T08:03:20;37.50;;;17.08;;
25279;SDS011;13225;47.804;12.116;2023-02-07T08:05:47;38.55;;;16.77;;
25279;SDS011;13225;47.804;12.116;2023-02-07T08:08:13;38.63;;;17.05;;
25279;SDS011;13225;47.804;12.116;2023-02-07T08:10:39;37.42;;;16.25;;
25279;SDS011;13225;47.804;12.116;2023-02-07T08:13:05;35.95;;;15.90;;
25279;SDS011;13225;47.804;12.116;2023-02-07T08:15:31;43.30;;;17.02;;
25279;SDS011;13225;47.804;12.116;2023-02-07T08:17:57;40.55;;;17.77;;
25279;SDS011;13225;47.804;12.116;2023-02-07T08:20:24;39.92;;;17.17;;
25279;SDS011;13225;47.804;12.116;2023-02-07T08:22:50;45.67;;;20.30;;
25279;SDS011;13225;47.804;12.116;2023-02-07T08:25:16;33.80;;;15.85;;
25279;SDS011;13225;47.804;12.116;2023-02-07T08:27:42;35.33;;;16.38;;
25279;SDS011;13225;47.804;12.116;2023-02-07T08:30:08;32.90;;;16.00;;
25279;SDS011;13225;47.804;12.116;2023-02-07T08:32:35;36.92;;;15.40;;
25279;SDS011;13225;47.804;12.116;2023-02-07T08:35:01;35.13;;;15.45;;
25279;SDS011;13225;47.804;12.116;2023-02-07T08:37:26;34.63;;;15.73;;
25279;SDS011;13225;47.804;12.116;2023-02-07T08:39:52;37.60;;;17.08;;
25279;SDS011;13225;47.804;12.116;2023-02-07T08:42:18;33.88;;;15.50;;
25279;SDS011;13225;47.804;12.116;2023-02-07T08:44:45;27.58;;;12.60;;
25279;SDS011;13225;47.804;12.116;2023-02-07T08:47:11;24.52;;;11.48;;
25279;SDS011;13225;47.804;12.116;2023-02-07T08:49:37;28.35;;;13.68;;
25279;SDS011;13225;47.804;12.116;2023-02-07T08:52:02;13.38;;;7.70;;
25279;SDS011;13225;47.804;12.116;2023-02-07T08:54:28;31.90;;;13.75;;
25279;SDS011;13225;47.804;12.116;2023-02-07T08:56:54;19.55;;;9.07;;
25279;SDS011;13225;47.804;12.116;2023-02-07T08:59:19;28.25;;;10.98;;
25279;SDS011;13225;47.804;12.116;2023-02-07T09:01:45;27.85;;;11.85;;
25279;SDS011;13225;47.804;12.116;2023-02-07T09:04:11;29.40;;;13.75;;
25279;SDS011;13225;47.804;12.116;2023-02-07T09:06:36;27.33;;;13.35;;
25279;SDS011;13225;47.804;12.116;2023-02-07T09:09:02;27.15;;;12.38;;
25279;SDS011;13225;47.804;12.116;2023-02-07T09:11:28;31.65;;;15.25;;
25279;SDS011;13225;47.804;12.116;2023-02-07T09:13:54;23.33;;;9.95;;
25279;SDS011;13225;47.804;12.116;2023-02-07T09:16:19;18.33;;;9.50;;
25279;SDS011;13225;47.804;12.116;2023-02-07T09:18:47;25.15;;;12.45;;
25279;SDS011;13225;47.804;12.116;2023-02-07T09:21:13;25.15;;;11.38;;
25279;SDS011;13225;47.804;12.116;2023-02-07T09:23:38;25.92;;;11.80;;
25279;SDS011;13225;47.804;12.116;2023-02-07T09:26:05;26.15;;;12.18;;
25279;SDS011;13225;47.804;12.116;2023-02-07T09:28:32;31.80;;;15.65;;
25279;SDS011;13225;47.804;12.116;2023-02-07T09:30:58;7.72;;;5.13;;
25279;SDS011;13225;47.804;12.116;2023-02-07T09:33:23;16.20;;;7.47;;
25279;SDS011;13225;47.804;12.116;2023-02-07T09:35:49;12.65;;;7.25;;
25279;SDS011;13225;47.804;12.116;2023-02-07T09:38:16;14.35;;;8.10;;
25279;SDS011;13225;47.804;12.116;2023-02-07T09:40:44;17.85;;;7.50;;
25279;SDS011;13225;47.804;12.116;2023-02-07T09:43:22;22.00;;;11.48;;
25279;SDS011;13225;47.804;12.116;2023-02-07T09:45:58;27.52;;;12.60;;
25279;SDS011;13225;47.804;12.116;2023-02-07T09:51:16;27.42;;;13.85;;
25279;SDS011;13225;47.804;12.116;2023-02-07T09:53:44;17.75;;;8.43;;
25279;SDS011;13225;47.804;12.116;2023-02-07T09:56:15;28.73;;;14.30;;
25279;SDS011;13225;47.804;12.116;2023-02-07T10:09:05;24.60;;;13.30;;
25279;SDS011;13225;47.804;12.116;2023-02-07T10:11:44;16.15;;;8.40;;
25279;SDS011;13225;47.804;12.116;2023-02-07T10:22:32;24.38;;;13.07;;
25279;SDS011;13225;47.804;12.116;2023-02-07T10:30:53;25.77;;;13.25;;
25279;SDS011;13225;47.804;12.116;2023-02-07T10:33:28;22.60;;;11.57;;
25279;SDS011;13225;47.804;12.116;2023-02-07T10:35:59;23.25;;;11.82;;
25279;SDS011;13225;47.804;12.116;2023-02-07T10:38:44;22.20;;;11.18;;
25279;SDS011;13225;47.804;12.116;2023-02-07T10:41:13;11.73;;;7.05;;
25279;SDS011;13225;47.804;12.116;2023-02-07T10:43:48;24.05;;;12.02;;
25279;SDS011;13225;47.804;12.116;2023-02-07T10:46:17;21.85;;;10.85;;
25279;SDS011;13225;47.804;12.116;2023-02-07T10:48:45;22.27;;;12.90;;
25279;SDS011;13225;47.804;12.116;2023-02-07T10:51:14;26.88;;;14.88;;
25279;SDS011;13225;47.804;12.116;2023-02-07T10:54:00;14.85;;;7.90;;
25279;SDS011;13225;47.804;12.116;2023-02-07T10:56:26;21.13;;;10.38;;
25279;SDS011;13225;47.804;12.116;2023-02-07T10:58:56;24.85;;;13.48;;
25279;SDS011;13225;47.804;12.116;2023-02-07T11:01:24;25.83;;;13.63;;
25279;SDS011;13225;47.804;12.116;2023-02-07T11:03:51;22.65;;;12.13;;
25279;SDS011;13225;47.804;12.116;2023-02-07T11:09:09;24.08;;;12.98;;
25279;SDS011;13225;47.804;12.116;2023-02-07T11:11:46;24.20;;;13.57;;
25279;SDS011;13225;47.804;12.116;2023-02-07T11:14:18;9.23;;;6.53;;
25279;SDS011;13225;47.804;12.116;2023-02-07T11:16:50;25.70;;;13.25;;
25279;SDS011;13225;47.804;12.116;2023-02-07T11:19:23;21.85;;;11.15;;
25279;SDS011;13225;47.804;12.116;2023-02-07T11:21:52;20.27;;;9.77;;
25279;SDS011;13225;47.804;12.116;2023-02-07T11:24:25;21.95;;;11.68;;
25279;SDS011;13225;47.804;12.116;2023-02-07T11:27:05;22.85;;;11.80;;
25279;SDS011;13225;47.804;12.116;2023-02-07T11:29:52;26.27;;;12.38;;
25279;SDS011;13225;47.804;12.116;2023-02-07T11:32:24;25.05;;;12.02;;
25279;SDS011;13225;47.804;12.116;2023-02-07T11:34:53;22.05;;;12.10;;
25279;SDS011;13225;47.804;12.116;2023-02-07T11:39:50;13.85;;;7.65;;
25279;SDS011;13225;47.804;12.116;2023-02-07T11:42:20;22.20;;;11.57;;
25279;SDS011;13225;47.804;12.116;2023-02-07T11:44:55;18.45;;;10.48;;
25279;SDS011;13225;47.804;12.116;2023-02-07T11:47:25;17.80;;;9.95;;
25279;SDS011;13225;47.804;12.116;2023-02-07T11:49:54;23.40;;;11.70;;
25279;SDS011;13225;47.804;12.116;2023-02-07T11:52:26;10.95;;;5.97;;
25279;SDS011;13225;47.804;12.116;2023-02-07T11:54:58;18.95;;;10.93;;
25279;SDS011;13225;47.804;12.116;2023-02-07T11:57:30;21.73;;;11.18;;
25279;SDS011;13225;47.804;12.116;2023-02-07T12:02:23;22.50;;;11.75;;
25279;SDS011;13225;47.804;12.116;2023-02-07T12:04:51;19.17;;;11.05;;
25279;SDS011;13225;47.804;12.116;2023-02-07T12:07:20;21.25;;;11.30;;
25279;SDS011;13225;47.804;12.116;2023-02-07T12:09:53;13.10;;;5.97;;
25279;SDS011;13225;47.804;12.116;2023-02-07T12:15:25;13.60;;;7.18;;
25279;SDS011;13225;47.804;12.116;2023-02-07T12:18:04;19.40;;;8.63;;
25279;SDS011;13225;47.804;12.116;2023-02-07T12:20:46;19.92;;;9.55;;
25279;SDS011;13225;47.804;12.116;2023-02-07T12:26:02;13.68;;;7.28;;
25279;SDS011;13225;47.804;12.116;2023-02-07T12:31:40;8.55;;;5.90;;
25279;SDS011;13225;47.804;12.116;2023-02-07T12:36:55;16.00;;;9.18;;
25279;SDS011;13225;47.804;12.116;2023-02-07T12:39:33;10.20;;;6.32;;
25279;SDS011;13225;47.804;12.116;2023-02-07T12:44:59;18.30;;;10.55;;
25279;SDS011;13225;47.804;12.116;2023-02-07T12:56:00;17.15;;;9.63;;
25279;SDS011;13225;47.804;12.116;2023-02-07T13:09:32;17.48;;;10.18;;
25279;SDS011;13225;47.804;12.116;2023-02-07T13:12:15;14.32;;;8.82;;
25279;SDS011;13225;47.804;12.116;2023-02-07T13:22:58;16.10;;;10.57;;
25279;SDS011;13225;47.804;12.116;2023-02-07T13:25:37;21.25;;;13.07;;
25279;SDS011;13225;47.804;12.116;2023-02-07T13:28:10;18.83;;;10.68;;
25279;SDS011;13225;47.804;12.116;2023-02-07T13:30:57;15.63;;;9.63;;
25279;SDS011;13225;47.804;12.116;2023-02-07T13:33:28;13.10;;;8.63;;
25279;SDS011;13225;47.804;12.116;2023-02-07T13:36:13;19.20;;;9.95;;
25279;SDS011;13225;47.804;12.116;2023-02-07T13:55:32;16.90;;;8.68;;
25279;SDS011;13225;47.804;12.116;2023-02-07T13:58:03;18.65;;;10.68;;
25279;SDS011;13225;47.804;12.116;2023-02-07T14:01:08;17.13;;;9.82;;
25279;SDS011;13225;47.804;12.116;2023-02-07T14:03:41;15.93;;;9.18;;
25279;SDS011;13225;47.804;12.116;2023-02-07T14:06:24;23.48;;;10.15;;
25279;SDS011;13225;47.804;12.116;2023-02-07T14:11:40;18.70;;;9.25;;
25279;SDS011;13225;47.804;12.116;2023-02-07T14:14:23;39.17;;;14.82;;
25279;SDS011;13225;47.804;12.116;2023-02-07T14:17:03;24.50;;;9.90;;
25279;SDS011;13225;47.804;12.116;2023-02-07T14:22:23;15.48;;;7.63;;
25279;SDS011;13225;47.804;12.116;2023-02-07T14:27:35;13.82;;;7.20;;
25279;SDS011;13225;47.804;12.116;2023-02-07T14:30:37;13.13;;;7.88;;
25279;SDS011;13225;47.804;12.116;2023-02-07T14:33:21;24.15;;;11.45;;
25279;SDS011;13225;47.804;12.116;2023-02-07T14:38:58;14.52;;;7.72;;
25279;SDS011;13225;47.804;12.116;2023-02-07T14:41:36;15.80;;;8.65;;
25279;SDS011;13225;47.804;12.116;2023-02-07T14:44:05;21.60;;;10.95;;
25279;SDS011;13225;47.804;12.116;2023-02-07T14:46:46;13.65;;;7.72;;
25279;SDS011;13225;47.804;12.116;2023-02-07T14:49:19;16.35;;;8.60;;
25279;SDS011;13225;47.804;12.116;2023-02-07T14:51:57;12.10;;;7.90;;
25279;SDS011;13225;47.804;12.116;2023-02-07T14:54:25;15.82;;;8.40;;
25279;SDS011;13225;47.804;12.116;2023-02-07T14:57:07;27.13;;;10.75;;
25279;SDS011;13225;47.804;12.116;2023-02-07T14:59:58;17.70;;;7.60;;
25279;SDS011;13225;47.804;12.116;2023-02-07T15:07:48;25.75;;;13.75;;
25279;SDS011;13225;47.804;12.116;2023-02-07T15:10:28;17.30;;;8.70;;
25279;SDS011;13225;47.804;12.116;2023-02-07T15:13:15;21.00;;;9.98;;
25279;SDS011;13225;47.804;12.116;2023-02-07T15:15:54;19.88;;;10.63;;
25279;SDS011;13225;47.804;12.116;2023-02-07T15:18:24;18.50;;;8.00;;
25279;SDS011;13225;47.804;12.116;2023-02-07T15:20:53;12.43;;;6.05;;
25279;SDS011;13225;47.804;12.116;2023-02-07T15:23:21;14.40;;;7.10;;
25279;SDS011;13225;47.804;12.116;2023-02-07T15:25:48;15.50;;;7.82;;
25279;SDS011;13225;47.804;12.116;2023-02-07T15:31:01;19.45;;;8.73;;
25279;SDS011;13225;47.804;12.116;2023-02-07T15:33:31;17.27;;;8.32;;
25279;SDS011;13225;47.804;12.116;2023-02-07T15:36:02;16.42;;;7.75;;
25279;SDS011;13225;47.804;12.116;2023-02-07T15:38:29;22.67;;;9.50;;
25279;SDS011;13225;47.804;12.116;2023-02-07T15:40:55;14.40;;;6.78;;
25279;SDS011;13225;47.804;12.116;2023-02-07T15:43:25;10.32;;;5.97;;
25279;SDS011;13225;47.804;12.116;2023-02-07T15:45:59;14.55;;;6.57;;
25279;SDS011;13225;47.804;12.116;2023-02-07T15:48:26;11.50;;;5.85;;
25279;SDS011;13225;47.804;12.116;2023-02-07T15:50:52;16.33;;;7.57;;
25279;SDS011;13225;47.804;12.116;2023-02-07T15:53:22;14.82;;;6.35;;
25279;SDS011;13225;47.804;12.116;2023-02-07T15:55:50;11.40;;;6.00;;
25279;SDS011;13225;47.804;12.116;2023-02-07T15:58:17;13.18;;;6.75;;
25279;SDS011;13225;47.804;12.116;2023-02-07T16:00:48;13.20;;;6.00;;
25279;SDS011;13225;47.804;12.116;2023-02-07T16:03:20;43.08;;;14.95;;
25279;SDS011;13225;47.804;12.116;2023-02-07T16:05:59;23.63;;;10.05;;
25279;SDS011;13225;47.804;12.116;2023-02-07T16:08:41;18.38;;;7.97;;
25279;SDS011;13225;47.804;12.116;2023-02-07T16:14:15;24.75;;;11.25;;
25279;SDS011;13225;47.804;12.116;2023-02-07T16:16:47;17.77;;;8.23;;
25279;SDS011;13225;47.804;12.116;2023-02-07T16:19:18;39.92;;;20.52;;
25279;SDS011;13225;47.804;12.116;2023-02-07T16:21:51;22.83;;;10.38;;
25279;SDS011;13225;47.804;12.116;2023-02-07T16:24:30;28.85;;;12.55;;
25279;SDS011;13225;47.804;12.116;2023-02-07T16:26:59;46.70;;;22.85;;
25279;SDS011;13225;47.804;12.116;2023-02-07T16:29:24;19.83;;;10.63;;
25279;SDS011;13225;47.804;12.116;2023-02-07T16:31:51;26.00;;;11.45;;
25279;SDS011;13225;47.804;12.116;2023-02-07T16:34:18;26.98;;;13.85;;
25279;SDS011;13225;47.804;12.116;2023-02-07T16:36:48;21.40;;;10.25;;
25279;SDS011;13225;47.804;12.116;2023-02-07T16:39:16;25.70;;;13.53;;
25279;SDS011;13225;47.804;12.116;2023-02-07T16:41:43;26.15;;;11.38;;
25279;SDS011;13225;47.804;12.116;2023-02-07T16:44:22;23.50;;;12.85;;
25279;SDS011;13225;47.804;12.116;2023-02-07T16:46:49;32.25;;;13.27;;
25279;SDS011;13225;47.804;12.116;2023-02-07T16:49:16;28.40;;;11.88;;
25279;SDS011;13225;47.804;12.116;2023-02-07T16:51:46;27.15;;;10.45;;
25279;SDS011;13225;47.804;12.116;2023-02-07T16:54:12;23.42;;;10.95;;
25279;SDS011;13225;47.804;12.116;2023-02-07T16:56:38;28.92;;;12.07;;
25279;SDS011;13225;47.804;12.116;2023-02-07T16:59:04;29.45;;;12.73;;
25279;SDS011;13225;47.804;12.116;2023-02-07T17:01:31;42.08;;;17.23;;